sensor_id;sensor_type;location;lat;lon;timestamp;pressure;altitude;pressure_sealevel;temperature;humidity
59110;BME280;44895;47.438;18.978;2022-11-06T00:01:37;100065.75;;;9.35;100.00
59110;BME280;44895;47.438;18.978;2022-11-06T00:04:41;100067.09;;;9.38;100.00
59110;BME280;44895;47.438;18.978;2022-11-06T00:07:46;100072.25;;;9.34;100.00
59110;BME280;44895;47.438;18.978;2022-11-06T00:10:50;100070.91;;;9.61;100.00
59110;BME280;44895;47.438;18.978;2022-11-06T00:13:54;100065.66;;;9.45;100.00
59110;BME280;44895;47.438;18.978;2022-11-06T00:16:57;100076.72;;;9.49;100.00
59110;BME280;44895;47.438;18.978;2022-11-06T00:20:02;100082.88;;;9.30;100.00
59110;BME280;44895;47.438;18.978;2022-11-06T00:23:06;100073.44;;;9.52;100.00
59110;BME280;44895;47.438;18.978;2022-11-06T00:26:16;100073.53;;;9.42;100.00
59110;BME280;44895;47.438;18.978;2022-11-06T00:29:20;100080.16;;;9.30;100.00
59110;BME280;44895;47.438;18.978;2022-11-06T00:32:24;100075.16;;;9.43;100.00
59110;BME280;44895;47.438;18.978;2022-11-06T00:35:28;100071.03;;;9.51;100.00
59110;BME280;44895;47.438;18.978;2022-11-06T00:38:33;100067.84;;;9.43;100.00
59110;BME280;44895;47.438;18.978;2022-11-06T00:41:37;100061.81;;;9.52;100.00
59110;BME280;44895;47.438;18.978;2022-11-06T00:44:40;100068.31;;;9.51;100.00
59110;BME280;44895;47.438;18.978;2022-11-06T00:47:44;100058.50;;;9.55;100.00
59110;BME280;44895;47.438;18.978;2022-11-06T00:50:48;100072.47;;;9.43;100.00
59110;BME280;44895;47.438;18.978;2022-11-06T00:53:54;100076.13;;;9.28;100.00
59110;BME280;44895;47.438;18.978;2022-11-06T00:56:58;100068.06;;;9.47;100.00
59110;BME280;44895;47.438;18.978;2022-11-06T01:00:03;100072.56;;;9.33;100.00
59110;BME280;44895;47.438;18.978;2022-11-06T01:03:06;100069.94;;;9.52;100.00
59110;BME280;44895;47.438;18.978;2022-11-06T01:06:16;100078.56;;;9.54;100.00
59110;BME280;44895;47.438;18.978;2022-11-06T01:09:21;100082.75;;;9.41;100.00
59110;BME280;44895;47.438;18.978;2022-11-06T01:12:26;100073.78;;;9.45;100.00
59110;BME280;44895;47.438;18.978;2022-11-06T01:15:30;100076.97;;;9.53;100.00
59110;BME280;44895;47.438;18.978;2022-11-06T01:18:34;100081.81;;;9.56;100.00
59110;BME280;44895;47.438;18.978;2022-11-06T01:21:40;100083.00;;;9.44;100.00
59110;BME280;44895;47.438;18.978;2022-11-06T01:24:44;100081.06;;;9.50;100.00
59110;BME280;44895;47.438;18.978;2022-11-06T01:27:47;100087.00;;;9.52;100.00
59110;BME280;44895;47.438;18.978;2022-11-06T01:30:52;100085.63;;;9.55;100.00
59110;BME280;44895;47.438;18.978;2022-11-06T01:33:57;100073.88;;;9.65;100.00
59110;BME280;44895;47.438;18.978;2022-11-06T01:37:01;100076.44;;;9.51;100.00
59110;BME280;44895;47.438;18.978;2022-11-06T01:40:05;100079.75;;;9.48;100.00
59110;BME280;44895;47.438;18.978;2022-11-06T01:43:23;100078.09;;;9.76;100.00
59110;BME280;44895;47.438;18.978;2022-11-06T01:46:29;100071.38;;;9.68;100.00
59110;BME280;44895;47.438;18.978;2022-11-06T01:49:36;100080.44;;;9.58;100.00
59110;BME280;44895;47.438;18.978;2022-11-06T01:52:42;100084.38;;;9.42;100.00
59110;BME280;44895;47.438;18.978;2022-11-06T01:55:51;100085.84;;;9.58;100.00
59110;BME280;44895;47.438;18.978;2022-11-06T01:58:56;100083.25;;;9.48;100.00
59110;BME280;44895;47.438;18.978;2022-11-06T02:02:01;100090.06;;;9.45;100.00
59110;BME280;44895;47.438;18.978;2022-11-06T02:05:05;100093.13;;;9.63;100.00
59110;BME280;44895;47.438;18.978;2022-11-06T02:08:12;100096.16;;;9.61;100.00
59110;BME280;44895;47.438;18.978;2022-11-06T02:11:17;100089.75;;;9.47;100.00
59110;BME280;44895;47.438;18.978;2022-11-06T02:14:37;100094.16;;;9.43;100.00
59110;BME280;44895;47.438;18.978;2022-11-06T02:18:15;100100.41;;;9.38;100.00
59110;BME280;44895;47.438;18.978;2022-11-06T02:24:45;100106.72;;;9.34;100.00
59110;BME280;44895;47.438;18.978;2022-11-06T02:28:00;100104.41;;;9.46;100.00
59110;BME280;44895;47.438;18.978;2022-11-06T02:31:10;100111.59;;;9.32;100.00
59110;BME280;44895;47.438;18.978;2022-11-06T02:34:17;100107.75;;;9.38;100.00
59110;BME280;44895;47.438;18.978;2022-11-06T02:37:26;100111.22;;;9.43;100.00
59110;BME280;44895;47.438;18.978;2022-11-06T02:40:35;100117.41;;;9.49;100.00
59110;BME280;44895;47.438;18.978;2022-11-06T02:43:47;100119.63;;;9.42;100.00
59110;BME280;44895;47.438;18.978;2022-11-06T02:46:52;100124.00;;;9.38;100.00
59110;BME280;44895;47.438;18.978;2022-11-06T02:50:11;100129.13;;;9.39;100.00
59110;BME280;44895;47.438;18.978;2022-11-06T02:53:19;100130.28;;;9.33;100.00
59110;BME280;44895;47.438;18.978;2022-11-06T02:56:28;100134.56;;;9.39;100.00
59110;BME280;44895;47.438;18.978;2022-11-06T02:59:49;100130.72;;;9.45;100.00
59110;BME280;44895;47.438;18.978;2022-11-06T03:03:00;100136.19;;;9.40;100.00
59110;BME280;44895;47.438;18.978;2022-11-06T03:06:14;100134.84;;;9.38;100.00
59110;BME280;44895;47.438;18.978;2022-11-06T03:09:24;100136.72;;;9.42;100.00
59110;BME280;44895;47.438;18.978;2022-11-06T03:15:57;100144.69;;;9.28;100.00
59110;BME280;44895;47.438;18.978;2022-11-06T03:26:03;100161.78;;;9.24;100.00
59110;BME280;44895;47.438;18.978;2022-11-06T03:29:28;100157.78;;;9.16;100.00
59110;BME280;44895;47.438;18.978;2022-11-06T03:32:52;100159.38;;;9.22;100.00
59110;BME280;44895;47.438;18.978;2022-11-06T03:36:04;100165.91;;;9.16;100.00
59110;BME280;44895;47.438;18.978;2022-11-06T03:39:17;100173.75;;;9.18;100.00
59110;BME280;44895;47.438;18.978;2022-11-06T03:42:27;100173.13;;;9.31;100.00
59110;BME280;44895;47.438;18.978;2022-11-06T03:45:32;100176.94;;;9.30;100.00
59110;BME280;44895;47.438;18.978;2022-11-06T03:48:38;100169.00;;;9.39;100.00
59110;BME280;44895;47.438;18.978;2022-11-06T03:51:48;100173.63;;;9.33;100.00
59110;BME280;44895;47.438;18.978;2022-11-06T03:55:00;100170.88;;;9.38;100.00
59110;BME280;44895;47.438;18.978;2022-11-06T03:58:09;100173.44;;;9.24;100.00
59110;BME280;44895;47.438;18.978;2022-11-06T04:01:20;100174.13;;;9.40;100.00
59110;BME280;44895;47.438;18.978;2022-11-06T04:04:52;100183.94;;;9.36;100.00
59110;BME280;44895;47.438;18.978;2022-11-06T04:07:58;100178.13;;;9.13;100.00
59110;BME280;44895;47.438;18.978;2022-11-06T04:11:23;100173.00;;;9.07;100.00
59110;BME280;44895;47.438;18.978;2022-11-06T04:14:50;100171.63;;;9.14;100.00
59110;BME280;44895;47.438;18.978;2022-11-06T04:17:55;100177.81;;;9.20;100.00
59110;BME280;44895;47.438;18.978;2022-11-06T04:32:04;100180.19;;;9.27;100.00
59110;BME280;44895;47.438;18.978;2022-11-06T04:35:16;100181.81;;;9.28;100.00
59110;BME280;44895;47.438;18.978;2022-11-06T04:42:05;100184.78;;;9.32;100.00
59110;BME280;44895;47.438;18.978;2022-11-06T04:45:26;100175.84;;;9.26;100.00
59110;BME280;44895;47.438;18.978;2022-11-06T04:48:31;100175.16;;;9.10;100.00
59110;BME280;44895;47.438;18.978;2022-11-06T04:51:36;100177.56;;;9.17;100.00
59110;BME280;44895;47.438;18.978;2022-11-06T04:54:41;100181.06;;;9.22;100.00
59110;BME280;44895;47.438;18.978;2022-11-06T04:57:46;100174.81;;;9.22;100.00
59110;BME280;44895;47.438;18.978;2022-11-06T05:00:50;100187.28;;;9.23;100.00
59110;BME280;44895;47.438;18.978;2022-11-06T05:03:54;100181.63;;;9.14;100.00
59110;BME280;44895;47.438;18.978;2022-11-06T05:06:58;100186.50;;;9.12;100.00
59110;BME280;44895;47.438;18.978;2022-11-06T05:10:02;100183.75;;;9.22;100.00
59110;BME280;44895;47.438;18.978;2022-11-06T05:13:06;100188.97;;;9.13;100.00
59110;BME280;44895;47.438;18.978;2022-11-06T05:16:10;100187.88;;;9.09;100.00
59110;BME280;44895;47.438;18.978;2022-11-06T05:19:13;100192.50;;;9.09;100.00
59110;BME280;44895;47.438;18.978;2022-11-06T05:22:17;100194.59;;;9.22;100.00
59110;BME280;44895;47.438;18.978;2022-11-06T05:25:39;100191.38;;;9.15;100.00
59110;BME280;44895;47.438;18.978;2022-11-06T05:28:43;100197.91;;;9.14;100.00
59110;BME280;44895;47.438;18.978;2022-11-06T05:31:47;100203.00;;;9.21;100.00
59110;BME280;44895;47.438;18.978;2022-11-06T05:34:51;100206.81;;;9.20;100.00
59110;BME280;44895;47.438;18.978;2022-11-06T05:37:59;100209.00;;;9.18;100.00
59110;BME280;44895;47.438;18.978;2022-11-06T05:41:02;100204.91;;;9.20;100.00
59110;BME280;44895;47.438;18.978;2022-11-06T05:44:06;100215.22;;;9.13;100.00
59110;BME280;44895;47.438;18.978;2022-11-06T05:47:10;100215.41;;;9.27;100.00
59110;BME280;44895;47.438;18.978;2022-11-06T05:50:14;100219.53;;;9.19;100.00
59110;BME280;44895;47.438;18.978;2022-11-06T05:53:17;100222.03;;;9.10;100.00
59110;BME280;44895;47.438;18.978;2022-11-06T05:56:21;100228.59;;;8.99;100.00
59110;BME280;44895;47.438;18.978;2022-11-06T05:59:25;100232.00;;;9.20;100.00
59110;BME280;44895;47.438;18.978;2022-11-06T06:02:29;100234.53;;;9.06;100.00
59110;BME280;44895;47.438;18.978;2022-11-06T06:05:33;100245.84;;;9.19;100.00
59110;BME280;44895;47.438;18.978;2022-11-06T06:08:37;100241.47;;;9.23;100.00
59110;BME280;44895;47.438;18.978;2022-11-06T06:11:41;100247.53;;;9.04;100.00
59110;BME280;44895;47.438;18.978;2022-11-06T06:14:45;100249.63;;;9.18;100.00
59110;BME280;44895;47.438;18.978;2022-11-06T06:17:49;100246.97;;;9.12;100.00
59110;BME280;44895;47.438;18.978;2022-11-06T06:20:53;100266.66;;;9.23;100.00
59110;BME280;44895;47.438;18.978;2022-11-06T06:23:56;100257.47;;;9.19;100.00
59110;BME280;44895;47.438;18.978;2022-11-06T06:27:00;100274.50;;;9.30;100.00
59110;BME280;44895;47.438;18.978;2022-11-06T06:30:05;100268.56;;;9.23;100.00
59110;BME280;44895;47.438;18.978;2022-11-06T06:33:09;100264.13;;;8.92;100.00
59110;BME280;44895;47.438;18.978;2022-11-06T06:36:13;100265.13;;;9.07;100.00
59110;BME280;44895;47.438;18.978;2022-11-06T06:39:17;100279.28;;;8.93;100.00
59110;BME280;44895;47.438;18.978;2022-11-06T06:42:21;100284.34;;;9.10;100.00
59110;BME280;44895;47.438;18.978;2022-11-06T06:45:25;100292.38;;;9.26;100.00
59110;BME280;44895;47.438;18.978;2022-11-06T06:48:31;100297.34;;;9.13;100.00
59110;BME280;44895;47.438;18.978;2022-11-06T06:51:34;100300.06;;;9.13;100.00
59110;BME280;44895;47.438;18.978;2022-11-06T06:54:38;100309.34;;;8.97;100.00
59110;BME280;44895;47.438;18.978;2022-11-06T06:57:42;100312.53;;;9.14;100.00
59110;BME280;44895;47.438;18.978;2022-11-06T07:00:46;100311.72;;;9.09;100.00
59110;BME280;44895;47.438;18.978;2022-11-06T07:03:50;100312.53;;;9.09;100.00
59110;BME280;44895;47.438;18.978;2022-11-06T07:06:54;100306.09;;;8.95;100.00
59110;BME280;44895;47.438;18.978;2022-11-06T07:09:58;100309.59;;;9.06;100.00
59110;BME280;44895;47.438;18.978;2022-11-06T07:13:03;100311.41;;;9.16;100.00
59110;BME280;44895;47.438;18.978;2022-11-06T07:16:09;100319.03;;;9.13;100.00
59110;BME280;44895;47.438;18.978;2022-11-06T07:19:13;100320.09;;;9.18;100.00
59110;BME280;44895;47.438;18.978;2022-11-06T07:22:17;100315.66;;;9.32;100.00
59110;BME280;44895;47.438;18.978;2022-11-06T07:25:21;100326.56;;;9.22;100.00
59110;BME280;44895;47.438;18.978;2022-11-06T07:28:25;100325.22;;;9.19;100.00
59110;BME280;44895;47.438;18.978;2022-11-06T07:31:30;100319.25;;;9.27;100.00
59110;BME280;44895;47.438;18.978;2022-11-06T07:34:33;100317.91;;;9.20;100.00
59110;BME280;44895;47.438;18.978;2022-11-06T07:37:37;100322.19;;;9.36;100.00
59110;BME280;44895;47.438;18.978;2022-11-06T07:40:41;100331.91;;;9.42;100.00
59110;BME280;44895;47.438;18.978;2022-11-06T07:43:48;100332.78;;;9.27;100.00
59110;BME280;44895;47.438;18.978;2022-11-06T07:46:51;100336.03;;;9.24;100.00
59110;BME280;44895;47.438;18.978;2022-11-06T07:49:55;100323.22;;;9.40;100.00
59110;BME280;44895;47.438;18.978;2022-11-06T07:53:00;100327.06;;;9.34;100.00
59110;BME280;44895;47.438;18.978;2022-11-06T07:56:05;100327.41;;;9.67;100.00
59110;BME280;44895;47.438;18.978;2022-11-06T07:59:11;100326.75;;;9.86;100.00
59110;BME280;44895;47.438;18.978;2022-11-06T08:02:15;100333.41;;;9.64;100.00
59110;BME280;44895;47.438;18.978;2022-11-06T08:05:20;100324.44;;;9.63;100.00
59110;BME280;44895;47.438;18.978;2022-11-06T08:08:23;100321.72;;;9.63;100.00
59110;BME280;44895;47.438;18.978;2022-11-06T08:11:27;100326.19;;;9.44;100.00
59110;BME280;44895;47.438;18.978;2022-11-06T08:14:31;100324.28;;;9.44;100.00
59110;BME280;44895;47.438;18.978;2022-11-06T08:17:35;100324.84;;;9.41;100.00
59110;BME280;44895;47.438;18.978;2022-11-06T08:20:39;100326.22;;;9.39;100.00
59110;BME280;44895;47.438;18.978;2022-11-06T08:23:43;100336.19;;;9.49;100.00
59110;BME280;44895;47.438;18.978;2022-11-06T08:26:47;100338.41;;;9.41;100.00
59110;BME280;44895;47.438;18.978;2022-11-06T08:29:51;100335.69;;;9.41;100.00
59110;BME280;44895;47.438;18.978;2022-11-06T08:32:59;100338.13;;;9.43;100.00
59110;BME280;44895;47.438;18.978;2022-11-06T08:36:05;100338.38;;;9.46;100.00
59110;BME280;44895;47.438;18.978;2022-11-06T08:39:09;100333.25;;;9.45;100.00
59110;BME280;44895;47.438;18.978;2022-11-06T08:42:12;100333.25;;;9.45;100.00
59110;BME280;44895;47.438;18.978;2022-11-06T08:45:16;100336.94;;;9.59;100.00
59110;BME280;44895;47.438;18.978;2022-11-06T08:48:20;100326.91;;;9.60;100.00
59110;BME280;44895;47.438;18.978;2022-11-06T08:51:24;100335.81;;;9.66;100.00
59110;BME280;44895;47.438;18.978;2022-11-06T08:54:28;100340.88;;;9.77;100.00
59110;BME280;44895;47.438;18.978;2022-11-06T08:57:32;100340.13;;;9.72;100.00
59110;BME280;44895;47.438;18.978;2022-11-06T09:00:36;100338.63;;;9.90;100.00
59110;BME280;44895;47.438;18.978;2022-11-06T09:03:40;100341.50;;;10.04;100.00
59110;BME280;44895;47.438;18.978;2022-11-06T09:06:44;100346.44;;;10.36;100.00
59110;BME280;44895;47.438;18.978;2022-11-06T09:09:48;100338.81;;;10.38;100.00
59110;BME280;44895;47.438;18.978;2022-11-06T09:12:52;100336.59;;;10.11;100.00
59110;BME280;44895;47.438;18.978;2022-11-06T09:15:56;100335.00;;;10.34;100.00
59110;BME280;44895;47.438;18.978;2022-11-06T09:18:59;100327.28;;;9.83;100.00
59110;BME280;44895;47.438;18.978;2022-11-06T09:22:03;100327.25;;;9.88;100.00
59110;BME280;44895;47.438;18.978;2022-11-06T09:25:08;100336.50;;;10.21;100.00
59110;BME280;44895;47.438;18.978;2022-11-06T09:28:12;100328.59;;;10.25;100.00
59110;BME280;44895;47.438;18.978;2022-11-06T09:31:16;100330.22;;;10.21;100.00
59110;BME280;44895;47.438;18.978;2022-11-06T09:34:19;100324.56;;;10.52;100.00
59110;BME280;44895;47.438;18.978;2022-11-06T09:37:23;100321.50;;;10.83;100.00
59110;BME280;44895;47.438;18.978;2022-11-06T09:40:33;100321.75;;;10.86;100.00
59110;BME280;44895;47.438;18.978;2022-11-06T09:47:17;100319.84;;;10.87;100.00
59110;BME280;44895;47.438;18.978;2022-11-06T09:50:26;100319.56;;;10.88;100.00
59110;BME280;44895;47.438;18.978;2022-11-06T09:53:36;100321.69;;;10.67;100.00
59110;BME280;44895;47.438;18.978;2022-11-06T09:56:42;100318.50;;;11.08;100.00
59110;BME280;44895;47.438;18.978;2022-11-06T09:59:49;100313.13;;;11.03;100.00
59110;BME280;44895;47.438;18.978;2022-11-06T10:03:28;100320.63;;;11.12;100.00
59110;BME280;44895;47.438;18.978;2022-11-06T10:06:33;100315.56;;;11.24;100.00
59110;BME280;44895;47.438;18.978;2022-11-06T10:09:37;100293.75;;;11.29;100.00
59110;BME280;44895;47.438;18.978;2022-11-06T10:16:32;100301.63;;;11.31;100.00
59110;BME280;44895;47.438;18.978;2022-11-06T10:19:48;100295.72;;;11.23;100.00
59110;BME280;44895;47.438;18.978;2022-11-06T10:23:03;100301.91;;;11.29;100.00
59110;BME280;44895;47.438;18.978;2022-11-06T10:26:14;100294.75;;;11.14;100.00
59110;BME280;44895;47.438;18.978;2022-11-06T10:29:39;100301.53;;;11.17;100.00
59110;BME280;44895;47.438;18.978;2022-11-06T10:36:15;100295.94;;;11.27;100.00
59110;BME280;44895;47.438;18.978;2022-11-06T10:39:31;100299.25;;;11.24;100.00
59110;BME280;44895;47.438;18.978;2022-11-06T10:42:37;100295.78;;;11.37;100.00
59110;BME280;44895;47.438;18.978;2022-11-06T10:45:47;100296.16;;;11.50;100.00
59110;BME280;44895;47.438;18.978;2022-11-06T10:49:02;100288.25;;;11.53;100.00
59110;BME280;44895;47.438;18.978;2022-11-06T10:59:45;100277.34;;;11.15;100.00
59110;BME280;44895;47.438;18.978;2022-11-06T11:02:55;100275.88;;;11.23;100.00
59110;BME280;44895;47.438;18.978;2022-11-06T11:05:59;100269.94;;;11.21;100.00
59110;BME280;44895;47.438;18.978;2022-11-06T11:12:29;100270.91;;;11.11;100.00
59110;BME280;44895;47.438;18.978;2022-11-06T11:15:43;100274.50;;;11.25;100.00
59110;BME280;44895;47.438;18.978;2022-11-06T11:18:48;100269.03;;;11.06;100.00
59110;BME280;44895;47.438;18.978;2022-11-06T11:22:00;100278.44;;;11.14;100.00
59110;BME280;44895;47.438;18.978;2022-11-06T11:25:07;100273.25;;;11.18;100.00
59110;BME280;44895;47.438;18.978;2022-11-06T11:28:29;100268.25;;;11.25;100.00
59110;BME280;44895;47.438;18.978;2022-11-06T11:31:34;100281.63;;;11.21;100.00
59110;BME280;44895;47.438;18.978;2022-11-06T11:34:50;100270.50;;;10.99;100.00
59110;BME280;44895;47.438;18.978;2022-11-06T11:38:13;100272.22;;;11.14;100.00
59110;BME280;44895;47.438;18.978;2022-11-06T11:44:21;100264.63;;;11.30;100.00
59110;BME280;44895;47.438;18.978;2022-11-06T11:47:26;100266.56;;;11.48;100.00
59110;BME280;44895;47.438;18.978;2022-11-06T11:50:31;100261.53;;;11.74;100.00
59110;BME280;44895;47.438;18.978;2022-11-06T11:53:37;100259.81;;;11.46;100.00
59110;BME280;44895;47.438;18.978;2022-11-06T11:59:57;100256.94;;;11.89;100.00
59110;BME280;44895;47.438;18.978;2022-11-06T12:03:09;100268.72;;;11.65;100.00
59110;BME280;44895;47.438;18.978;2022-11-06T12:06:15;100256.44;;;11.87;100.00
59110;BME280;44895;47.438;18.978;2022-11-06T12:09:21;100261.16;;;12.14;100.00
59110;BME280;44895;47.438;18.978;2022-11-06T12:12:29;100260.72;;;11.74;100.00
59110;BME280;44895;47.438;18.978;2022-11-06T12:16:06;100256.41;;;11.73;100.00
59110;BME280;44895;47.438;18.978;2022-11-06T12:19:13;100260.28;;;12.33;100.00
59110;BME280;44895;47.438;18.978;2022-11-06T12:22:34;100255.38;;;12.02;100.00
59110;BME280;44895;47.438;18.978;2022-11-06T12:25:41;100256.81;;;12.13;100.00
59110;BME280;44895;47.438;18.978;2022-11-06T12:28:49;100261.66;;;12.02;100.00
59110;BME280;44895;47.438;18.978;2022-11-06T12:35:44;100268.44;;;11.86;100.00
59110;BME280;44895;47.438;18.978;2022-11-06T12:39:02;100264.47;;;11.78;100.00
59110;BME280;44895;47.438;18.978;2022-11-06T12:42:10;100259.28;;;11.96;100.00
59110;BME280;44895;47.438;18.978;2022-11-06T12:45:14;100265.41;;;11.87;100.00
59110;BME280;44895;47.438;18.978;2022-11-06T12:48:25;100272.41;;;11.74;100.00
59110;BME280;44895;47.438;18.978;2022-11-06T12:51:40;100271.31;;;11.75;100.00
59110;BME280;44895;47.438;18.978;2022-11-06T12:58:41;100268.97;;;11.69;100.00
59110;BME280;44895;47.438;18.978;2022-11-06T13:09:07;100266.00;;;11.65;100.00
59110;BME280;44895;47.438;18.978;2022-11-06T13:12:50;100263.22;;;11.70;100.00
59110;BME280;44895;47.438;18.978;2022-11-06T13:19:35;100266.88;;;11.80;100.00
59110;BME280;44895;47.438;18.978;2022-11-06T13:22:45;100262.28;;;11.61;100.00
59110;BME280;44895;47.438;18.978;2022-11-06T13:26:08;100263.97;;;11.57;100.00
59110;BME280;44895;47.438;18.978;2022-11-06T13:29:18;100263.38;;;11.60;100.00
59110;BME280;44895;47.438;18.978;2022-11-06T13:32:23;100270.22;;;11.57;100.00
59110;BME280;44895;47.438;18.978;2022-11-06T13:35:29;100253.69;;;11.73;100.00
59110;BME280;44895;47.438;18.978;2022-11-06T13:38:41;100264.50;;;11.59;100.00
59110;BME280;44895;47.438;18.978;2022-11-06T13:41:46;100259.13;;;11.54;100.00
59110;BME280;44895;47.438;18.978;2022-11-06T13:44:50;100266.59;;;11.81;100.00
59110;BME280;44895;47.438;18.978;2022-11-06T13:48:17;100258.94;;;11.83;100.00
59110;BME280;44895;47.438;18.978;2022-11-06T13:58:23;100242.69;;;11.97;100.00
59110;BME280;44895;47.438;18.978;2022-11-06T14:01:48;100238.78;;;12.03;100.00
59110;BME280;44895;47.438;18.978;2022-11-06T14:08:29;100236.25;;;11.88;100.00
59110;BME280;44895;47.438;18.978;2022-11-06T14:11:36;100240.16;;;11.82;100.00
59110;BME280;44895;47.438;18.978;2022-11-06T14:14:41;100243.72;;;11.82;100.00
59110;BME280;44895;47.438;18.978;2022-11-06T14:17:59;100235.78;;;11.86;100.00
59110;BME280;44895;47.438;18.978;2022-11-06T14:24:35;100239.34;;;11.67;100.00
59110;BME280;44895;47.438;18.978;2022-11-06T14:30:44;100239.50;;;11.57;100.00
59110;BME280;44895;47.438;18.978;2022-11-06T14:36:54;100239.66;;;11.47;100.00
59110;BME280;44895;47.438;18.978;2022-11-06T14:43:21;100243.88;;;11.39;100.00
59110;BME280;44895;47.438;18.978;2022-11-06T14:46:28;100243.25;;;11.42;100.00
59110;BME280;44895;47.438;18.978;2022-11-06T14:49:42;100250.47;;;11.33;100.00
59110;BME280;44895;47.438;18.978;2022-11-06T14:52:59;100260.59;;;11.27;100.00
59110;BME280;44895;47.438;18.978;2022-11-06T14:56:08;100261.19;;;11.05;100.00
59110;BME280;44895;47.438;18.978;2022-11-06T14:59:25;100260.81;;;10.92;100.00
59110;BME280;44895;47.438;18.978;2022-11-06T15:02:34;100266.31;;;10.87;100.00
59110;BME280;44895;47.438;18.978;2022-11-06T15:05:39;100258.00;;;10.79;100.00
59110;BME280;44895;47.438;18.978;2022-11-06T15:15:01;100275.59;;;10.33;100.00
59110;BME280;44895;47.438;18.978;2022-11-06T15:18:10;100279.63;;;10.35;100.00
59110;BME280;44895;47.438;18.978;2022-11-06T15:21:23;100277.41;;;10.42;100.00
59110;BME280;44895;47.438;18.978;2022-11-06T15:24:36;100274.13;;;10.16;100.00
59110;BME280;44895;47.438;18.978;2022-11-06T15:27:44;100282.66;;;9.99;100.00
59110;BME280;44895;47.438;18.978;2022-11-06T15:37:16;100273.56;;;9.85;100.00
59110;BME280;44895;47.438;18.978;2022-11-06T15:43:30;100275.16;;;9.51;100.00
59110;BME280;44895;47.438;18.978;2022-11-06T15:46:35;100286.06;;;9.41;100.00
59110;BME280;44895;47.438;18.978;2022-11-06T15:49:39;100283.09;;;9.37;100.00
59110;BME280;44895;47.438;18.978;2022-11-06T15:52:44;100284.72;;;9.38;100.00
59110;BME280;44895;47.438;18.978;2022-11-06T15:56:02;100285.41;;;9.20;100.00
59110;BME280;44895;47.438;18.978;2022-11-06T15:59:14;100278.38;;;9.13;100.00
59110;BME280;44895;47.438;18.978;2022-11-06T16:02:21;100292.69;;;9.24;100.00
59110;BME280;44895;47.438;18.978;2022-11-06T16:05:26;100281.91;;;9.14;100.00
59110;BME280;44895;47.438;18.978;2022-11-06T16:08:31;100281.28;;;9.27;100.00
59110;BME280;44895;47.438;18.978;2022-11-06T16:11:35;100283.56;;;9.10;100.00
59110;BME280;44895;47.438;18.978;2022-11-06T16:14:40;100288.34;;;9.28;100.00
59110;BME280;44895;47.438;18.978;2022-11-06T16:17:46;100290.50;;;9.26;100.00
59110;BME280;44895;47.438;18.978;2022-11-06T16:20:54;100291.28;;;9.32;100.00
59110;BME280;44895;47.438;18.978;2022-11-06T16:24:10;100287.94;;;9.45;100.00
59110;BME280;44895;47.438;18.978;2022-11-06T16:27:15;100282.63;;;9.30;100.00
59110;BME280;44895;47.438;18.978;2022-11-06T16:30:22;100282.66;;;9.25;100.00
59110;BME280;44895;47.438;18.978;2022-11-06T16:33:25;100285.63;;;9.28;100.00
59110;BME280;44895;47.438;18.978;2022-11-06T16:36:47;100291.22;;;9.48;100.00
59110;BME280;44895;47.438;18.978;2022-11-06T16:39:52;100285.91;;;9.67;100.00
59110;BME280;44895;47.438;18.978;2022-11-06T16:43:00;100286.38;;;9.39;100.00
59110;BME280;44895;47.438;18.978;2022-11-06T16:46:06;100286.75;;;9.62;100.00
59110;BME280;44895;47.438;18.978;2022-11-06T16:49:30;100279.22;;;9.54;100.00
59110;BME280;44895;47.438;18.978;2022-11-06T16:52:36;100283.16;;;9.72;100.00
59110;BME280;44895;47.438;18.978;2022-11-06T16:55:51;100276.28;;;9.50;100.00
59110;BME280;44895;47.438;18.978;2022-11-06T16:59:08;100280.06;;;9.49;100.00
59110;BME280;44895;47.438;18.978;2022-11-06T17:02:21;100278.25;;;9.74;100.00
59110;BME280;44895;47.438;18.978;2022-11-06T17:05:31;100286.50;;;9.58;100.00
59110;BME280;44895;47.438;18.978;2022-11-06T17:08:40;100286.06;;;9.41;100.00
59110;BME280;44895;47.438;18.978;2022-11-06T17:11:44;100281.09;;;9.13;100.00
59110;BME280;44895;47.438;18.978;2022-11-06T17:14:47;100285.81;;;9.37;100.00
59110;BME280;44895;47.438;18.978;2022-11-06T17:17:51;100281.34;;;9.12;100.00
59110;BME280;44895;47.438;18.978;2022-11-06T17:21:06;100281.59;;;9.16;100.00
59110;BME280;44895;47.438;18.978;2022-11-06T17:24:14;100286.00;;;9.06;100.00
59110;BME280;44895;47.438;18.978;2022-11-06T17:27:18;100296.13;;;8.80;100.00
59110;BME280;44895;47.438;18.978;2022-11-06T17:30:22;100296.50;;;8.47;100.00
59110;BME280;44895;47.438;18.978;2022-11-06T17:33:26;100300.16;;;8.88;100.00
59110;BME280;44895;47.438;18.978;2022-11-06T17:36:30;100297.69;;;8.96;100.00
59110;BME280;44895;47.438;18.978;2022-11-06T17:39:35;100299.06;;;8.94;100.00
59110;BME280;44895;47.438;18.978;2022-11-06T17:42:39;100295.38;;;8.64;100.00
59110;BME280;44895;47.438;18.978;2022-11-06T17:45:43;100297.84;;;8.50;100.00
59110;BME280;44895;47.438;18.978;2022-11-06T17:48:47;100308.94;;;8.33;100.00
59110;BME280;44895;47.438;18.978;2022-11-06T17:51:51;100304.06;;;8.35;100.00
59110;BME280;44895;47.438;18.978;2022-11-06T17:54:55;100306.78;;;8.35;100.00
59110;BME280;44895;47.438;18.978;2022-11-06T17:57:59;100312.47;;;8.13;100.00
59110;BME280;44895;47.438;18.978;2022-11-06T18:01:04;100318.69;;;8.29;100.00